sensor_id;sensor_type;location;lat;lon;timestamp;temperature;humidity
9998;DHT22;5038;53.064;8.624;2023-06-14T00:00:03;18.30;76.20
9998;DHT22;5038;53.064;8.624;2023-06-14T00:02:32;18.20;75.70
9998;DHT22;5038;53.064;8.624;2023-06-14T00:05:01;18.20;75.90
9998;DHT22;5038;53.064;8.624;2023-06-14T00:07:36;18.20;76.10
9998;DHT22;5038;53.064;8.624;2023-06-14T00:10:06;18.20;76.40
9998;DHT22;5038;53.064;8.624;2023-06-14T00:12:36;18.10;76.40
9998;DHT22;5038;53.064;8.624;2023-06-14T00:15:05;18.10;76.70
9998;DHT22;5038;53.064;8.624;2023-06-14T00:17:33;18.10;76.90
9998;DHT22;5038;53.064;8.624;2023-06-14T00:20:04;18.10;77.00
9998;DHT22;5038;53.064;8.624;2023-06-14T00:22:34;18.00;77.20
9998;DHT22;5038;53.064;8.624;2023-06-14T00:25:04;18.00;77.40
9998;DHT22;5038;53.064;8.624;2023-06-14T00:27:51;18.00;77.50
9998;DHT22;5038;53.064;8.624;2023-06-14T00:30:19;17.90;77.70
9998;DHT22;5038;53.064;8.624;2023-06-14T00:32:48;17.90;77.90
9998;DHT22;5038;53.064;8.624;2023-06-14T00:35:17;17.80;78.00
9998;DHT22;5038;53.064;8.624;2023-06-14T00:37:45;17.80;78.20
9998;DHT22;5038;53.064;8.624;2023-06-14T00:40:14;17.80;78.40
9998;DHT22;5038;53.064;8.624;2023-06-14T00:42:45;17.80;78.60
9998;DHT22;5038;53.064;8.624;2023-06-14T00:45:14;17.70;78.60
9998;DHT22;5038;53.064;8.624;2023-06-14T00:47:43;17.70;78.80
9998;DHT22;5038;53.064;8.624;2023-06-14T00:50:11;17.70;79.00
9998;DHT22;5038;53.064;8.624;2023-06-14T00:52:40;17.70;79.20
9998;DHT22;5038;53.064;8.624;2023-06-14T00:55:08;17.60;79.20
9998;DHT22;5038;53.064;8.624;2023-06-14T00:57:37;17.60;79.40
9998;DHT22;5038;53.064;8.624;2023-06-14T01:00:07;17.60;79.60
9998;DHT22;5038;53.064;8.624;2023-06-14T01:02:39;17.60;79.70
9998;DHT22;5038;53.064;8.624;2023-06-14T01:05:09;17.50;79.90
9998;DHT22;5038;53.064;8.624;2023-06-14T01:07:51;17.50;80.10
9998;DHT22;5038;53.064;8.624;2023-06-14T01:10:31;17.40;80.20
9998;DHT22;5038;53.064;8.624;2023-06-14T01:13:08;17.40;80.40
9998;DHT22;5038;53.064;8.624;2023-06-14T01:15:39;17.30;80.50
9998;DHT22;5038;53.064;8.624;2023-06-14T01:18:10;17.30;80.70
9998;DHT22;5038;53.064;8.624;2023-06-14T01:20:45;17.30;80.90
9998;DHT22;5038;53.064;8.624;2023-06-14T01:23:18;17.20;81.00
9998;DHT22;5038;53.064;8.624;2023-06-14T01:25:46;17.20;81.20
9998;DHT22;5038;53.064;8.624;2023-06-14T01:28:21;17.20;82.00
9998;DHT22;5038;53.064;8.624;2023-06-14T01:30:52;17.20;81.60
9998;DHT22;5038;53.064;8.624;2023-06-14T01:33:23;17.10;81.60
9998;DHT22;5038;53.064;8.624;2023-06-14T01:35:55;17.10;81.80
9998;DHT22;5038;53.064;8.624;2023-06-14T01:38:26;17.10;82.20
9998;DHT22;5038;53.064;8.624;2023-06-14T01:40:58;17.00;82.20
9998;DHT22;5038;53.064;8.624;2023-06-14T01:43:30;17.00;82.30
9998;DHT22;5038;53.064;8.624;2023-06-14T01:45:59;17.00;82.50
9998;DHT22;5038;53.064;8.624;2023-06-14T01:48:28;16.90;82.60
9998;DHT22;5038;53.064;8.624;2023-06-14T01:50:56;16.90;82.70
9998;DHT22;5038;53.064;8.624;2023-06-14T01:53:27;16.90;82.90
9998;DHT22;5038;53.064;8.624;2023-06-14T01:55:55;16.80;83.00
9998;DHT22;5038;53.064;8.624;2023-06-14T01:58:23;16.80;83.20
9998;DHT22;5038;53.064;8.624;2023-06-14T02:00:52;16.80;83.40
9998;DHT22;5038;53.064;8.624;2023-06-14T02:03:22;16.80;83.60
9998;DHT22;5038;53.064;8.624;2023-06-14T02:05:52;16.70;83.70
9998;DHT22;5038;53.064;8.624;2023-06-14T02:08:21;16.70;83.90
9998;DHT22;5038;53.064;8.624;2023-06-14T02:10:50;16.70;84.10
9998;DHT22;5038;53.064;8.624;2023-06-14T02:13:21;16.60;84.20
9998;DHT22;5038;53.064;8.624;2023-06-14T02:15:50;16.60;84.40
9998;DHT22;5038;53.064;8.624;2023-06-14T02:18:21;16.50;84.50
9998;DHT22;5038;53.064;8.624;2023-06-14T02:20:49;16.50;84.60
9998;DHT22;5038;53.064;8.624;2023-06-14T02:23:18;16.40;84.70
9998;DHT22;5038;53.064;8.624;2023-06-14T02:25:46;16.40;84.90
9998;DHT22;5038;53.064;8.624;2023-06-14T02:28:16;16.40;85.10
9998;DHT22;5038;53.064;8.624;2023-06-14T02:30:44;16.40;85.30
9998;DHT22;5038;53.064;8.624;2023-06-14T02:33:13;16.30;85.30
9998;DHT22;5038;53.064;8.624;2023-06-14T02:35:42;16.30;85.50
9998;DHT22;5038;53.064;8.624;2023-06-14T02:38:10;16.30;85.60
9998;DHT22;5038;53.064;8.624;2023-06-14T02:40:38;16.30;85.80
9998;DHT22;5038;53.064;8.624;2023-06-14T02:43:09;16.30;85.90
9998;DHT22;5038;53.064;8.624;2023-06-14T02:45:39;16.20;85.90
9998;DHT22;5038;53.064;8.624;2023-06-14T02:48:08;16.20;86.10
9998;DHT22;5038;53.064;8.624;2023-06-14T02:50:36;16.20;86.20
9998;DHT22;5038;53.064;8.624;2023-06-14T02:53:05;16.20;86.40
9998;DHT22;5038;53.064;8.624;2023-06-14T02:55:33;16.20;86.60
9998;DHT22;5038;53.064;8.624;2023-06-14T02:58:06;16.20;86.70
9998;DHT22;5038;53.064;8.624;2023-06-14T03:00:34;16.10;86.80
9998;DHT22;5038;53.064;8.624;2023-06-14T03:03:06;16.10;87.00
9998;DHT22;5038;53.064;8.624;2023-06-14T03:05:44;16.10;87.30
9998;DHT22;5038;53.064;8.624;2023-06-14T03:08:16;16.00;87.30
9998;DHT22;5038;53.064;8.624;2023-06-14T03:10:49;16.00;87.40
9998;DHT22;5038;53.064;8.624;2023-06-14T03:13:18;16.00;87.70
9998;DHT22;5038;53.064;8.624;2023-06-14T03:15:49;16.00;87.80
9998;DHT22;5038;53.064;8.624;2023-06-14T03:18:21;15.90;87.90
9998;DHT22;5038;53.064;8.624;2023-06-14T03:20:53;15.90;88.10
9998;DHT22;5038;53.064;8.624;2023-06-14T03:23:25;15.90;88.20
9998;DHT22;5038;53.064;8.624;2023-06-14T03:25:53;15.90;88.40
9998;DHT22;5038;53.064;8.624;2023-06-14T03:28:22;15.90;88.60
9998;DHT22;5038;53.064;8.624;2023-06-14T03:30:52;15.90;88.70
9998;DHT22;5038;53.064;8.624;2023-06-14T03:33:22;15.80;88.80
9998;DHT22;5038;53.064;8.624;2023-06-14T03:35:52;15.80;89.00
9998;DHT22;5038;53.064;8.624;2023-06-14T03:38:21;15.80;89.20
9998;DHT22;5038;53.064;8.624;2023-06-14T03:40:50;15.80;89.40
9998;DHT22;5038;53.064;8.624;2023-06-14T03:43:18;15.80;89.50
9998;DHT22;5038;53.064;8.624;2023-06-14T03:45:46;15.70;89.60
9998;DHT22;5038;53.064;8.624;2023-06-14T03:48:14;15.70;89.80
9998;DHT22;5038;53.064;8.624;2023-06-14T03:50:44;15.70;89.90
9998;DHT22;5038;53.064;8.624;2023-06-14T03:53:12;15.70;90.00
9998;DHT22;5038;53.064;8.624;2023-06-14T03:55:44;15.70;90.10
9998;DHT22;5038;53.064;8.624;2023-06-14T03:58:15;15.70;90.20
9998;DHT22;5038;53.064;8.624;2023-06-14T04:00:44;15.70;90.50
9998;DHT22;5038;53.064;8.624;2023-06-14T04:03:13;15.60;90.30
9998;DHT22;5038;53.064;8.624;2023-06-14T04:05:43;15.60;90.40
9998;DHT22;5038;53.064;8.624;2023-06-14T04:08:17;15.60;90.40
9998;DHT22;5038;53.064;8.624;2023-06-14T04:10:46;15.60;90.50
9998;DHT22;5038;53.064;8.624;2023-06-14T04:13:14;15.60;90.60
9998;DHT22;5038;53.064;8.624;2023-06-14T04:15:42;15.60;90.70
9998;DHT22;5038;53.064;8.624;2023-06-14T04:18:17;15.60;90.70
9998;DHT22;5038;53.064;8.624;2023-06-14T04:20:51;15.60;90.80
9998;DHT22;5038;53.064;8.624;2023-06-14T04:23:20;15.60;90.90
9998;DHT22;5038;53.064;8.624;2023-06-14T04:25:49;15.60;91.00
9998;DHT22;5038;53.064;8.624;2023-06-14T04:28:17;15.60;91.00
9998;DHT22;5038;53.064;8.624;2023-06-14T04:30:46;15.60;91.10
9998;DHT22;5038;53.064;8.624;2023-06-14T04:33:17;15.60;91.20
9998;DHT22;5038;53.064;8.624;2023-06-14T04:35:45;15.60;91.30
9998;DHT22;5038;53.064;8.624;2023-06-14T04:38:19;15.60;91.40
9998;DHT22;5038;53.064;8.624;2023-06-14T04:40:53;15.60;91.40
9998;DHT22;5038;53.064;8.624;2023-06-14T04:43:22;15.60;91.50
9998;DHT22;5038;53.064;8.624;2023-06-14T04:45:53;15.60;91.60
9998;DHT22;5038;53.064;8.624;2023-06-14T04:48:24;15.60;91.60
9998;DHT22;5038;53.064;8.624;2023-06-14T04:50:52;15.60;91.70
9998;DHT22;5038;53.064;8.624;2023-06-14T04:53:22;15.60;91.70
9998;DHT22;5038;53.064;8.624;2023-06-14T04:55:54;15.60;91.80
9998;DHT22;5038;53.064;8.624;2023-06-14T04:58:23;15.70;91.90
9998;DHT22;5038;53.064;8.624;2023-06-14T05:00:51;15.70;91.90
9998;DHT22;5038;53.064;8.624;2023-06-14T05:03:20;15.70;92.00
9998;DHT22;5038;53.064;8.624;2023-06-14T05:05:48;15.70;92.00
9998;DHT22;5038;53.064;8.624;2023-06-14T05:08:17;15.70;92.00
9998;DHT22;5038;53.064;8.624;2023-06-14T05:10:47;15.80;92.10
9998;DHT22;5038;53.064;8.624;2023-06-14T05:13:16;15.70;92.10
9998;DHT22;5038;53.064;8.624;2023-06-14T05:15:45;15.80;92.20
9998;DHT22;5038;53.064;8.624;2023-06-14T05:18:14;15.80;92.20
9998;DHT22;5038;53.064;8.624;2023-06-14T05:20:42;15.80;92.30
9998;DHT22;5038;53.064;8.624;2023-06-14T05:23:11;15.90;92.30
9998;DHT22;5038;53.064;8.624;2023-06-14T05:25:43;15.90;92.40
9998;DHT22;5038;53.064;8.624;2023-06-14T05:28:13;16.00;92.40
9998;DHT22;5038;53.064;8.624;2023-06-14T05:30:41;16.10;92.50
9998;DHT22;5038;53.064;8.624;2023-06-14T05:33:09;16.10;92.50
9998;DHT22;5038;53.064;8.624;2023-06-14T05:35:38;16.20;92.50
9998;DHT22;5038;53.064;8.624;2023-06-14T05:38:06;16.30;92.50
9998;DHT22;5038;53.064;8.624;2023-06-14T05:40:34;16.40;92.50
9998;DHT22;5038;53.064;8.624;2023-06-14T05:43:02;16.60;92.60
9998;DHT22;5038;53.064;8.624;2023-06-14T05:45:32;16.80;92.60
9998;DHT22;5038;53.064;8.624;2023-06-14T05:48:00;17.00;92.70
9998;DHT22;5038;53.064;8.624;2023-06-14T05:50:28;17.20;92.70
9998;DHT22;5038;53.064;8.624;2023-06-14T05:52:56;17.40;92.60
9998;DHT22;5038;53.064;8.624;2023-06-14T05:55:25;17.60;92.70
9998;DHT22;5038;53.064;8.624;2023-06-14T05:57:53;17.80;92.60
9998;DHT22;5038;53.064;8.624;2023-06-14T06:00:21;18.00;92.50
9998;DHT22;5038;53.064;8.624;2023-06-14T06:02:50;18.30;92.40
9998;DHT22;5038;53.064;8.624;2023-06-14T06:05:19;18.60;92.30
9998;DHT22;5038;53.064;8.624;2023-06-14T06:07:47;18.80;92.30
9998;DHT22;5038;53.064;8.624;2023-06-14T06:10:16;19.10;92.20
9998;DHT22;5038;53.064;8.624;2023-06-14T06:12:44;19.30;91.90
9998;DHT22;5038;53.064;8.624;2023-06-14T06:15:14;19.50;91.80
9998;DHT22;5038;53.064;8.624;2023-06-14T06:17:43;19.70;91.60
9998;DHT22;5038;53.064;8.624;2023-06-14T06:20:23;19.90;91.30
9998;DHT22;5038;53.064;8.624;2023-06-14T06:22:56;20.00;91.10
9998;DHT22;5038;53.064;8.624;2023-06-14T06:25:25;20.20;91.00
9998;DHT22;5038;53.064;8.624;2023-06-14T06:27:53;20.30;90.90
9998;DHT22;5038;53.064;8.624;2023-06-14T06:30:23;20.50;91.00
9998;DHT22;5038;53.064;8.624;2023-06-14T06:32:51;20.70;90.80
9998;DHT22;5038;53.064;8.624;2023-06-14T06:35:20;20.90;90.70
9998;DHT22;5038;53.064;8.624;2023-06-14T06:37:49;21.00;90.60
9998;DHT22;5038;53.064;8.624;2023-06-14T06:40:17;21.20;90.80
9998;DHT22;5038;53.064;8.624;2023-06-14T06:42:46;21.30;90.40
9998;DHT22;5038;53.064;8.624;2023-06-14T06:45:17;21.50;90.30
9998;DHT22;5038;53.064;8.624;2023-06-14T06:47:45;21.70;90.20
9998;DHT22;5038;53.064;8.624;2023-06-14T06:50:13;21.80;90.00
9998;DHT22;5038;53.064;8.624;2023-06-14T06:52:42;22.00;89.40
9998;DHT22;5038;53.064;8.624;2023-06-14T06:55:13;22.10;88.50
9998;DHT22;5038;53.064;8.624;2023-06-14T06:57:42;22.20;88.00
9998;DHT22;5038;53.064;8.624;2023-06-14T07:00:11;22.20;87.30
9998;DHT22;5038;53.064;8.624;2023-06-14T07:02:40;22.30;86.80
9998;DHT22;5038;53.064;8.624;2023-06-14T07:05:08;22.30;86.30
9998;DHT22;5038;53.064;8.624;2023-06-14T07:07:37;22.40;86.00
9998;DHT22;5038;53.064;8.624;2023-06-14T07:10:05;22.40;85.60
9998;DHT22;5038;53.064;8.624;2023-06-14T07:12:35;22.50;85.20
9998;DHT22;5038;53.064;8.624;2023-06-14T07:15:07;22.60;84.80
9998;DHT22;5038;53.064;8.624;2023-06-14T07:17:35;22.60;84.50
9998;DHT22;5038;53.064;8.624;2023-06-14T07:20:05;22.70;84.10
9998;DHT22;5038;53.064;8.624;2023-06-14T07:22:39;22.70;83.60
9998;DHT22;5038;53.064;8.624;2023-06-14T07:25:09;22.80;82.90
9998;DHT22;5038;53.064;8.624;2023-06-14T07:27:40;22.80;82.60
9998;DHT22;5038;53.064;8.624;2023-06-14T07:30:09;22.80;82.20
9998;DHT22;5038;53.064;8.624;2023-06-14T07:32:38;22.80;81.90
9998;DHT22;5038;53.064;8.624;2023-06-14T07:35:07;22.90;82.20
9998;DHT22;5038;53.064;8.624;2023-06-14T07:37:35;23.00;82.30
9998;DHT22;5038;53.064;8.624;2023-06-14T07:40:05;23.00;81.70
9998;DHT22;5038;53.064;8.624;2023-06-14T07:42:34;23.20;81.40
9998;DHT22;5038;53.064;8.624;2023-06-14T07:45:05;23.20;81.10
9998;DHT22;5038;53.064;8.624;2023-06-14T07:47:34;23.30;81.00
9998;DHT22;5038;53.064;8.624;2023-06-14T07:50:02;23.40;80.00
9998;DHT22;5038;53.064;8.624;2023-06-14T07:52:32;23.40;79.30
9998;DHT22;5038;53.064;8.624;2023-06-14T07:55:00;23.40;79.00
9998;DHT22;5038;53.064;8.624;2023-06-14T07:57:28;23.40;78.50
9998;DHT22;5038;53.064;8.624;2023-06-14T07:59:57;23.40;78.50
9998;DHT22;5038;53.064;8.624;2023-06-14T08:02:26;23.50;78.40
9998;DHT22;5038;53.064;8.624;2023-06-14T08:04:55;23.50;77.60
9998;DHT22;5038;53.064;8.624;2023-06-14T08:07:23;23.50;76.80
9998;DHT22;5038;53.064;8.624;2023-06-14T08:09:51;23.40;76.10
9998;DHT22;5038;53.064;8.624;2023-06-14T08:12:19;23.40;75.80
9998;DHT22;5038;53.064;8.624;2023-06-14T08:14:47;23.40;76.00
9998;DHT22;5038;53.064;8.624;2023-06-14T08:17:28;23.50;76.50
9998;DHT22;5038;53.064;8.624;2023-06-14T08:19:57;23.50;75.60
9998;DHT22;5038;53.064;8.624;2023-06-14T08:22:26;23.50;75.30
9998;DHT22;5038;53.064;8.624;2023-06-14T08:24:58;23.50;75.20
9998;DHT22;5038;53.064;8.624;2023-06-14T08:27:26;23.50;75.10
9998;DHT22;5038;53.064;8.624;2023-06-14T08:29:56;23.50;74.80
9998;DHT22;5038;53.064;8.624;2023-06-14T08:32:24;23.50;74.90
9998;DHT22;5038;53.064;8.624;2023-06-14T08:34:54;23.40;74.40
9998;DHT22;5038;53.064;8.624;2023-06-14T08:37:31;23.40;74.30
9998;DHT22;5038;53.064;8.624;2023-06-14T08:40:00;23.40;74.20
9998;DHT22;5038;53.064;8.624;2023-06-14T08:42:33;23.40;74.40
9998;DHT22;5038;53.064;8.624;2023-06-14T08:45:03;23.50;74.70
9998;DHT22;5038;53.064;8.624;2023-06-14T08:47:32;23.50;74.60
9998;DHT22;5038;53.064;8.624;2023-06-14T08:50:10;23.50;74.70
9998;DHT22;5038;53.064;8.624;2023-06-14T08:52:55;23.60;74.60
9998;DHT22;5038;53.064;8.624;2023-06-14T08:55:24;23.60;74.60
9998;DHT22;5038;53.064;8.624;2023-06-14T08:57:55;23.70;74.30
9998;DHT22;5038;53.064;8.624;2023-06-14T09:00:25;23.70;73.90
9998;DHT22;5038;53.064;8.624;2023-06-14T09:02:54;23.70;74.20
9998;DHT22;5038;53.064;8.624;2023-06-14T09:05:27;23.60;73.50
9998;DHT22;5038;53.064;8.624;2023-06-14T09:07:56;23.60;73.50
9998;DHT22;5038;53.064;8.624;2023-06-14T09:10:32;23.70;73.60
9998;DHT22;5038;53.064;8.624;2023-06-14T09:13:01;23.70;73.40
9998;DHT22;5038;53.064;8.624;2023-06-14T09:15:30;23.70;72.90
9998;DHT22;5038;53.064;8.624;2023-06-14T09:18:01;23.60;73.00
9998;DHT22;5038;53.064;8.624;2023-06-14T09:20:32;23.60;73.40
9998;DHT22;5038;53.064;8.624;2023-06-14T09:23:00;23.70;73.60
9998;DHT22;5038;53.064;8.624;2023-06-14T09:25:28;23.70;73.40
9998;DHT22;5038;53.064;8.624;2023-06-14T09:28:06;23.70;73.20
9998;DHT22;5038;53.064;8.624;2023-06-14T09:30:36;23.70;73.40
9998;DHT22;5038;53.064;8.624;2023-06-14T09:33:05;23.80;73.60
9998;DHT22;5038;53.064;8.624;2023-06-14T09:35:35;23.80;73.50
9998;DHT22;5038;53.064;8.624;2023-06-14T09:38:03;23.80;73.50
9998;DHT22;5038;53.064;8.624;2023-06-14T09:40:35;23.90;73.30
9998;DHT22;5038;53.064;8.624;2023-06-14T09:43:06;23.90;73.10
9998;DHT22;5038;53.064;8.624;2023-06-14T09:45:38;23.90;72.90
9998;DHT22;5038;53.064;8.624;2023-06-14T09:48:07;24.00;73.20
9998;DHT22;5038;53.064;8.624;2023-06-14T09:50:39;24.00;72.90
9998;DHT22;5038;53.064;8.624;2023-06-14T09:53:10;24.00;72.90
9998;DHT22;5038;53.064;8.624;2023-06-14T09:55:40;24.00;72.80
9998;DHT22;5038;53.064;8.624;2023-06-14T09:58:10;24.00;72.80
9998;DHT22;5038;53.064;8.624;2023-06-14T10:00:40;24.10;72.60
9998;DHT22;5038;53.064;8.624;2023-06-14T10:03:12;24.10;72.60
9998;DHT22;5038;53.064;8.624;2023-06-14T10:05:45;24.10;72.60
9998;DHT22;5038;53.064;8.624;2023-06-14T10:08:15;24.10;72.80
9998;DHT22;5038;53.064;8.624;2023-06-14T10:10:44;24.20;72.90
9998;DHT22;5038;53.064;8.624;2023-06-14T10:13:13;24.30;72.90
9998;DHT22;5038;53.064;8.624;2023-06-14T10:15:48;24.30;73.10
9998;DHT22;5038;53.064;8.624;2023-06-14T10:18:24;24.40;72.90
9998;DHT22;5038;53.064;8.624;2023-06-14T10:21:06;24.50;73.00
9998;DHT22;5038;53.064;8.624;2023-06-14T10:23:42;24.50;72.70
9998;DHT22;5038;53.064;8.624;2023-06-14T10:26:19;24.50;72.30
9998;DHT22;5038;53.064;8.624;2023-06-14T10:28:59;24.50;72.50
9998;DHT22;5038;53.064;8.624;2023-06-14T10:31:40;24.60;72.70
9998;DHT22;5038;53.064;8.624;2023-06-14T10:34:10;24.60;72.50
9998;DHT22;5038;53.064;8.624;2023-06-14T10:36:42;24.70;72.70
9998;DHT22;5038;53.064;8.624;2023-06-14T10:39:14;24.70;72.60
9998;DHT22;5038;53.064;8.624;2023-06-14T10:41:53;24.80;72.40
9998;DHT22;5038;53.064;8.624;2023-06-14T10:44:39;24.90;72.80
9998;DHT22;5038;53.064;8.624;2023-06-14T10:47:10;25.00;72.20
9998;DHT22;5038;53.064;8.624;2023-06-14T10:49:41;25.10;72.20
9998;DHT22;5038;53.064;8.624;2023-06-14T10:52:12;25.20;72.30
9998;DHT22;5038;53.064;8.624;2023-06-14T10:55:13;25.30;72.80
9998;DHT22;5038;53.064;8.624;2023-06-14T10:57:44;25.40;72.50
9998;DHT22;5038;53.064;8.624;2023-06-14T11:00:19;25.50;72.40
9998;DHT22;5038;53.064;8.624;2023-06-14T11:03:20;25.60;72.10
9998;DHT22;5038;53.064;8.624;2023-06-14T11:05:57;25.70;70.80
9998;DHT22;5038;53.064;8.624;2023-06-14T11:11:25;25.60;70.20
9998;DHT22;5038;53.064;8.624;2023-06-14T11:13:57;25.50;70.00
9998;DHT22;5038;53.064;8.624;2023-06-14T11:16:26;25.40;70.20
9998;DHT22;5038;53.064;8.624;2023-06-14T11:18:55;25.30;70.10
9998;DHT22;5038;53.064;8.624;2023-06-14T11:21:24;25.30;70.00
9998;DHT22;5038;53.064;8.624;2023-06-14T11:23:59;25.40;70.50
9998;DHT22;5038;53.064;8.624;2023-06-14T11:26:28;25.40;69.80
9998;DHT22;5038;53.064;8.624;2023-06-14T11:28:58;25.30;69.40
9998;DHT22;5038;53.064;8.624;2023-06-14T11:31:26;25.30;69.10
9998;DHT22;5038;53.064;8.624;2023-06-14T11:33:56;25.20;68.90
9998;DHT22;5038;53.064;8.624;2023-06-14T11:36:26;25.10;68.80
9998;DHT22;5038;53.064;8.624;2023-06-14T11:39:02;25.10;68.90
9998;DHT22;5038;53.064;8.624;2023-06-14T11:41:34;25.10;68.80
9998;DHT22;5038;53.064;8.624;2023-06-14T11:44:02;25.10;68.80
9998;DHT22;5038;53.064;8.624;2023-06-14T11:46:30;25.10;69.10
9998;DHT22;5038;53.064;8.624;2023-06-14T11:48:59;25.10;68.90
9998;DHT22;5038;53.064;8.624;2023-06-14T11:51:30;25.10;68.80
9998;DHT22;5038;53.064;8.624;2023-06-14T11:53:58;25.20;69.10
9998;DHT22;5038;53.064;8.624;2023-06-14T11:56:28;25.20;68.90
9998;DHT22;5038;53.064;8.624;2023-06-14T11:58:57;25.30;68.90
9998;DHT22;5038;53.064;8.624;2023-06-14T12:01:25;25.30;68.90
9998;DHT22;5038;53.064;8.624;2023-06-14T12:03:54;25.40;69.20
9998;DHT22;5038;53.064;8.624;2023-06-14T12:06:26;25.40;68.70
9998;DHT22;5038;53.064;8.624;2023-06-14T12:09:03;25.50;68.40
9998;DHT22;5038;53.064;8.624;2023-06-14T12:11:35;25.60;68.70
9998;DHT22;5038;53.064;8.624;2023-06-14T12:14:04;25.70;68.70
9998;DHT22;5038;53.064;8.624;2023-06-14T12:16:35;25.80;68.60
9998;DHT22;5038;53.064;8.624;2023-06-14T12:19:13;25.70;68.30
9998;DHT22;5038;53.064;8.624;2023-06-14T12:21:42;25.90;68.50
9998;DHT22;5038;53.064;8.624;2023-06-14T12:24:12;25.80;68.30
9998;DHT22;5038;53.064;8.624;2023-06-14T12:26:42;25.70;68.10
9998;DHT22;5038;53.064;8.624;2023-06-14T12:29:10;25.60;67.90
9998;DHT22;5038;53.064;8.624;2023-06-14T12:31:40;25.60;67.90
9998;DHT22;5038;53.064;8.624;2023-06-14T12:34:09;25.40;67.60
9998;DHT22;5038;53.064;8.624;2023-06-14T12:36:38;25.30;67.40
9998;DHT22;5038;53.064;8.624;2023-06-14T12:39:12;25.30;67.60
9998;DHT22;5038;53.064;8.624;2023-06-14T12:41:42;25.20;67.80
9998;DHT22;5038;53.064;8.624;2023-06-14T12:44:10;25.10;67.80
9998;DHT22;5038;53.064;8.624;2023-06-14T12:46:38;25.10;68.00
9998;DHT22;5038;53.064;8.624;2023-06-14T12:49:09;25.10;68.30
9998;DHT22;5038;53.064;8.624;2023-06-14T12:51:37;25.10;68.20
9998;DHT22;5038;53.064;8.624;2023-06-14T12:54:06;25.30;68.20
9998;DHT22;5038;53.064;8.624;2023-06-14T12:56:34;25.30;67.80
9998;DHT22;5038;53.064;8.624;2023-06-14T12:59:04;25.40;67.70
9998;DHT22;5038;53.064;8.624;2023-06-14T13:01:33;25.50;67.60
9998;DHT22;5038;53.064;8.624;2023-06-14T13:04:01;25.50;67.60
9998;DHT22;5038;53.064;8.624;2023-06-14T13:06:30;25.60;67.20
9998;DHT22;5038;53.064;8.624;2023-06-14T13:08:59;25.60;67.00
9998;DHT22;5038;53.064;8.624;2023-06-14T13:11:28;25.60;66.80
9998;DHT22;5038;53.064;8.624;2023-06-14T13:13:56;25.50;66.70
9998;DHT22;5038;53.064;8.624;2023-06-14T13:16:26;25.50;66.80
9998;DHT22;5038;53.064;8.624;2023-06-14T13:18:54;25.40;67.10
9998;DHT22;5038;53.064;8.624;2023-06-14T13:21:22;25.40;67.40
9998;DHT22;5038;53.064;8.624;2023-06-14T13:23:51;25.30;67.20
9998;DHT22;5038;53.064;8.624;2023-06-14T13:26:20;25.30;67.10
9998;DHT22;5038;53.064;8.624;2023-06-14T13:28:48;25.30;67.10
9998;DHT22;5038;53.064;8.624;2023-06-14T13:31:18;25.20;67.20
9998;DHT22;5038;53.064;8.624;2023-06-14T13:33:47;25.20;67.20
9998;DHT22;5038;53.064;8.624;2023-06-14T13:36:15;25.10;67.20
9998;DHT22;5038;53.064;8.624;2023-06-14T13:38:44;25.10;67.20
9998;DHT22;5038;53.064;8.624;2023-06-14T13:41:15;25.10;67.30
9998;DHT22;5038;53.064;8.624;2023-06-14T13:43:43;25.10;67.40
9998;DHT22;5038;53.064;8.624;2023-06-14T13:46:11;25.10;67.30
9998;DHT22;5038;53.064;8.624;2023-06-14T13:48:39;25.10;67.30
9998;DHT22;5038;53.064;8.624;2023-06-14T13:51:09;25.00;67.40
9998;DHT22;5038;53.064;8.624;2023-06-14T13:53:38;24.90;67.40
9998;DHT22;5038;53.064;8.624;2023-06-14T13:56:06;24.90;67.40
9998;DHT22;5038;53.064;8.624;2023-06-14T13:58:34;24.90;67.50
9998;DHT22;5038;53.064;8.624;2023-06-14T14:01:02;24.90;67.90
9998;DHT22;5038;53.064;8.624;2023-06-14T14:03:30;25.00;68.00
9998;DHT22;5038;53.064;8.624;2023-06-14T14:06:00;25.10;68.30
9998;DHT22;5038;53.064;8.624;2023-06-14T14:08:29;25.30;68.40
9998;DHT22;5038;53.064;8.624;2023-06-14T14:10:58;25.40;68.20
9998;DHT22;5038;53.064;8.624;2023-06-14T14:13:26;25.50;68.20
9998;DHT22;5038;53.064;8.624;2023-06-14T14:15:54;25.60;67.90
9998;DHT22;5038;53.064;8.624;2023-06-14T14:18:22;25.70;67.60
9998;DHT22;5038;53.064;8.624;2023-06-14T14:20:51;25.70;67.30
9998;DHT22;5038;53.064;8.624;2023-06-14T14:23:19;25.80;67.20
9998;DHT22;5038;53.064;8.624;2023-06-14T14:25:49;25.90;66.90
9998;DHT22;5038;53.064;8.624;2023-06-14T14:28:17;25.80;66.90
9998;DHT22;5038;53.064;8.624;2023-06-14T14:30:47;25.80;67.00
9998;DHT22;5038;53.064;8.624;2023-06-14T14:33:16;25.70;66.80
9998;DHT22;5038;53.064;8.624;2023-06-14T14:35:44;25.70;66.80
9998;DHT22;5038;53.064;8.624;2023-06-14T14:38:14;25.60;66.70
9998;DHT22;5038;53.064;8.624;2023-06-14T14:40:42;25.60;66.70
9998;DHT22;5038;53.064;8.624;2023-06-14T14:43:12;25.50;66.60
9998;DHT22;5038;53.064;8.624;2023-06-14T14:45:40;25.50;66.60
9998;DHT22;5038;53.064;8.624;2023-06-14T14:48:08;25.40;66.50
9998;DHT22;5038;53.064;8.624;2023-06-14T14:50:37;25.30;66.50
9998;DHT22;5038;53.064;8.624;2023-06-14T14:53:05;25.30;66.60
9998;DHT22;5038;53.064;8.624;2023-06-14T14:55:33;25.30;66.70
9998;DHT22;5038;53.064;8.624;2023-06-14T14:58:04;25.20;66.80
9998;DHT22;5038;53.064;8.624;2023-06-14T15:00:35;25.20;67.00
9998;DHT22;5038;53.064;8.624;2023-06-14T15:03:03;25.20;67.00
9998;DHT22;5038;53.064;8.624;2023-06-14T15:05:31;25.20;67.00
9998;DHT22;5038;53.064;8.624;2023-06-14T15:08:00;25.20;67.20
9998;DHT22;5038;53.064;8.624;2023-06-14T15:10:28;25.30;67.10
9998;DHT22;5038;53.064;8.624;2023-06-14T15:12:56;25.50;67.20
9998;DHT22;5038;53.064;8.624;2023-06-14T15:15:24;25.60;67.10
9998;DHT22;5038;53.064;8.624;2023-06-14T15:17:53;25.70;67.10
9998;DHT22;5038;53.064;8.624;2023-06-14T15:20:22;25.80;67.00
9998;DHT22;5038;53.064;8.624;2023-06-14T15:22:50;25.90;66.70
9998;DHT22;5038;53.064;8.624;2023-06-14T15:25:19;25.90;66.30
9998;DHT22;5038;53.064;8.624;2023-06-14T15:27:48;25.80;66.00
9998;DHT22;5038;53.064;8.624;2023-06-14T15:30:16;25.80;65.90
9998;DHT22;5038;53.064;8.624;2023-06-14T15:32:44;25.70;65.70
9998;DHT22;5038;53.064;8.624;2023-06-14T15:35:16;25.60;65.50
9998;DHT22;5038;53.064;8.624;2023-06-14T15:37:44;25.60;65.60
9998;DHT22;5038;53.064;8.624;2023-06-14T15:40:13;25.50;65.50
9998;DHT22;5038;53.064;8.624;2023-06-14T15:42:41;25.50;65.50
9998;DHT22;5038;53.064;8.624;2023-06-14T15:45:10;25.40;65.40
9998;DHT22;5038;53.064;8.624;2023-06-14T15:47:38;25.40;65.60
9998;DHT22;5038;53.064;8.624;2023-06-14T15:50:07;25.30;65.60
9998;DHT22;5038;53.064;8.624;2023-06-14T15:52:38;25.30;65.60
9998;DHT22;5038;53.064;8.624;2023-06-14T15:55:06;25.30;66.30
9998;DHT22;5038;53.064;8.624;2023-06-14T15:57:35;25.20;65.70
9998;DHT22;5038;53.064;8.624;2023-06-14T16:00:04;25.20;65.60
9998;DHT22;5038;53.064;8.624;2023-06-14T16:02:32;25.20;65.50
9998;DHT22;5038;53.064;8.624;2023-06-14T16:05:00;25.10;65.40
9998;DHT22;5038;53.064;8.624;2023-06-14T16:07:28;25.10;65.30
9998;DHT22;5038;53.064;8.624;2023-06-14T16:09:58;25.10;65.50
9998;DHT22;5038;53.064;8.624;2023-06-14T16:12:26;25.20;65.70
9998;DHT22;5038;53.064;8.624;2023-06-14T16:14:54;25.30;65.80
9998;DHT22;5038;53.064;8.624;2023-06-14T16:17:22;25.40;65.80
9998;DHT22;5038;53.064;8.624;2023-06-14T16:19:52;25.50;65.80
9998;DHT22;5038;53.064;8.624;2023-06-14T16:22:20;25.60;65.80